Time;durP1;ratioP1;P1;durP2;ratioP2;P2;SDS_P1;SDS_P2;PMS_P1;PMS_P2;Temp;Humidity;BMP_temperature;BMP_pressure;BME280_temperature;BME280_humidity;BME280_pressure;Samples;Min_cycle;Max_cycle;Signal;HPM_P1;HPM_P2
2023/07/22 00:17:16;;;;;;;5.43;2.35;;;15.50;97.40;;;;;;4975847;28;20074;-54
2023/07/22 00:19:52;;;;;;;5.15;2.55;;;15.50;97.50;;;;;;4975216;28;20051;-57
2023/07/22 00:22:22;;;;;;;5.53;2.38;;;15.50;97.40;;;;;;4963534;28;20142;-59
2023/07/22 00:25:27;;;;;;;5.50;2.92;;;15.50;97.60;;;;;;4952818;29;20050;-58
2023/07/22 00:28:08;;;;;;;6.00;2.50;;;15.40;97.70;;;;;;4940730;29;20045;-57
2023/07/22 00:31:08;;;;;;;8.13;2.60;;;15.40;97.70;;;;;;4956101;29;20047;-56
2023/07/22 00:34:19;;;;;;;5.38;2.25;;;15.30;97.70;;;;;;4917059;29;20096;-55
2023/07/22 00:37:45;;;;;;;;;;;;;;;;;;;;;
2023/07/22 00:41:05;;;;;;;;;;;;;;;;;;;;;
2023/07/22 00:44:35;;;;;;;;;;;;;;;;;;;;;
2023/07/22 00:51:47;;;;;;;;;;;;;;;;;;;;;
2023/07/22 00:54:41;;;;;;;4.30;2.28;;;15.10;98.20;;;;;;4936264;29;20054;-54
2023/07/22 00:58:01;;;;;;;6.00;2.42;;;15.10;98.30;;;;;;4920054;29;20056;-55
2023/07/22 01:00:30;;;;;;;7.75;2.38;;;15.10;98.20;;;;;;4920355;29;20399;-55
2023/07/22 01:03:25;;;;;;;5.45;2.28;;;15.10;98.30;;;;;;5036103;28;20064;-54
2023/07/22 01:05:54;;;;;;;6.38;2.10;;;15.10;98.30;;;;;;5053464;28;20128;-57
2023/07/22 01:08:37;;;;;;;4.85;2.15;;;15.10;98.30;;;;;;5052248;28;20060;-54
2023/07/22 01:11:08;;;;;;;5.03;2.17;;;15.10;98.30;;;;;;5021246;28;20477;-55
2023/07/22 01:13:57;;;;;;;;;;;;;;;;;;;;;
2023/07/22 01:20:11;;;;;;;8.10;2.30;;;15.10;98.40;;;;;;4937648;28;20036;-58
2023/07/22 01:22:47;;;;;;;5.90;2.15;;;15.10;98.30;;;;;;4989152;28;20052;-56
2023/07/22 01:25:14;;;;;;;5.82;2.13;;;15.10;98.30;;;;;;4993711;28;20072;-54
2023/07/22 01:27:46;;;;;;;6.00;1.90;;;15.10;98.30;;;;;;4993743;28;20129;-55
2023/07/22 01:30:20;;;;;;;5.63;2.17;;;15.20;98.30;;;;;;4993818;28;20045;-55
2023/07/22 01:32:50;;;;;;;4.57;1.95;;;15.20;98.20;;;;;;4977755;28;20051;-56
2023/07/22 01:35:21;;;;;;;3.90;1.92;;;15.20;98.20;;;;;;4993598;28;20061;-57
2023/07/22 01:37:48;;;;;;;6.85;2.33;;;15.20;98.30;;;;;;4993386;28;20050;-57
2023/07/22 01:40:22;;;;;;;3.85;1.90;;;15.20;98.40;;;;;;4993374;28;20244;-53
2023/07/22 01:42:51;;;;;;;5.75;2.03;;;15.20;98.40;;;;;;4993357;28;20057;-54
2023/07/22 01:45:23;;;;;;;4.40;2.08;;;15.20;98.30;;;;;;4967920;28;20050;-57
2023/07/22 01:47:55;;;;;;;4.57;2.10;;;15.10;98.30;;;;;;4996215;28;20069;-54
2023/07/22 01:54:01;;;;;;;;;;;;;;;;;;;;;
2023/07/22 02:08:10;;;;;;;5.40;1.70;;;15.00;98.40;;;;;;5074206;28;20026;-55
2023/07/22 02:10:37;;;;;;;4.10;1.83;;;15.00;98.40;;;;;;5056092;28;20048;-56
2023/07/22 02:13:47;;;;;;;5.90;2.00;;;15.00;98.50;;;;;;5074580;28;20038;-55
2023/07/22 02:16:41;;;;;;;4.53;2.00;;;15.00;98.60;;;;;;5072512;28;20094;-54
2023/07/22 02:19:09;;;;;;;2.97;1.80;;;15.00;98.50;;;;;;5056192;28;20045;-57
2023/07/22 02:21:40;;;;;;;4.35;2.03;;;15.00;98.60;;;;;;5074107;28;20044;-54
2023/07/22 02:24:08;;;;;;;4.13;2.08;;;15.00;98.50;;;;;;5056156;28;20215;-54
2023/07/22 02:26:41;;;;;;;3.75;2.00;;;15.00;98.50;;;;;;5056074;28;20126;-56
2023/07/22 02:29:10;;;;;;;4.05;2.10;;;15.00;98.50;;;;;;5055878;28;20047;-56
2023/07/22 02:31:42;;;;;;;5.95;2.03;;;15.00;98.50;;;;;;5074116;28;20064;-54
2023/07/22 02:34:13;;;;;;;3.80;1.95;;;15.00;98.60;;;;;;5074127;28;20433;-55
2023/07/22 02:36:42;;;;;;;4.97;1.95;;;15.00;98.50;;;;;;5039579;28;20040;-56
2023/07/22 02:39:09;;;;;;;3.38;1.95;;;15.10;98.60;;;;;;5056004;28;20041;-57
2023/07/22 02:41:41;;;;;;;6.50;2.10;;;15.10;98.50;;;;;;5055839;28;20142;-54
2023/07/22 02:44:09;;;;;;;5.13;2.13;;;15.10;98.60;;;;;;5073788;28;20071;-55
2023/07/22 02:49:42;;;;;;;7.45;2.30;;;15.10;98.60;;;;;;5056279;28;20033;-56
2023/07/22 02:52:14;;;;;;;3.90;2.13;;;15.10;98.50;;;;;;5055769;28;20051;-54
2023/07/22 02:54:46;;;;;;;5.07;2.22;;;15.10;98.60;;;;;;5039672;28;20044;-55
2023/07/22 02:57:17;;;;;;;5.30;2.20;;;15.10;98.50;;;;;;5055728;28;20371;-55
2023/07/22 02:59:44;;;;;;;4.28;2.10;;;15.10;98.60;;;;;;5055368;28;20134;-54
2023/07/22 03:02:17;;;;;;;4.93;2.22;;;15.10;98.60;;;;;;5055834;28;20044;-54
2023/07/22 03:08:48;;;;;;;7.43;2.40;;;15.10;98.70;;;;;;5035808;28;20053;-54
2023/07/22 03:11:29;;;;;;;4.82;2.45;;;15.10;98.80;;;;;;5019094;28;20057;-54
2023/07/22 03:14:21;;;;;;;5.63;2.50;;;15.00;98.90;;;;;;5018967;28;20045;-56
2023/07/22 03:16:57;;;;;;;5.30;2.10;;;15.00;98.90;;;;;;5018921;28;20131;-57
2023/07/22 03:19:36;;;;;;;5.10;2.20;;;15.00;99.10;;;;;;5018771;28;20069;-55
2023/07/22 03:22:33;;;;;;;3.70;2.05;;;15.00;99.20;;;;;;5035227;28;20064;-56
2023/07/22 03:31:40;;;;;;;6.03;2.05;;;15.00;99.40;;;;;;4999132;28;20026;-56
2023/07/22 03:34:17;;;;;;;6.22;2.10;;;15.10;99.40;;;;;;5034771;28;20475;-56
2023/07/22 03:40:06;;;;;;;4.25;2.10;;;15.10;99.40;;;;;;5046968;28;20040;-58
2023/07/22 03:43:47;;;;;;;5.25;1.95;;;15.10;99.50;;;;;;5036023;28;20579;-57
2023/07/22 03:46:43;;;;;;;4.93;2.38;;;15.00;99.50;;;;;;4998273;28;20049;-54
2023/07/22 03:49:28;;;;;;;3.63;2.10;;;15.10;99.50;;;;;;5014802;28;20050;-56
2023/07/22 03:52:45;;;;;;;4.28;2.00;;;15.10;99.70;;;;;;4959365;28;20053;-57
2023/07/22 03:55:35;;;;;;;6.63;2.10;;;15.10;99.60;;;;;;4986997;28;20148;-58
2023/07/22 03:58:34;;;;;;;4.95;2.25;;;15.10;99.70;;;;;;5014504;28;20054;-56
2023/07/22 04:01:30;;;;;;;;;;;;;;;;;;;;;
2023/07/22 04:04:05;;;;;;;5.88;2.40;;;15.10;99.80;;;;;;5007079;28;20045;-56
2023/07/22 04:07:07;;;;;;;;;;;;;;;;;;;;;
2023/07/22 04:10:12;;;;;;;3.78;1.83;;;15.10;99.80;;;;;;4937128;29;20043;-57
2023/07/22 04:12:50;;;;;;;;;;;;;;;;;;;;;
2023/07/22 04:19:07;;;;;;;3.60;1.75;;;15.00;99.80;;;;;;4979404;28;20115;-54
2023/07/22 04:21:43;;;;;;;3.95;2.00;;;15.10;99.80;;;;;;5014798;28;20077;-57
2023/07/22 04:28:24;;;;;;;4.05;2.25;;;15.00;99.90;;;;;;4899001;29;20408;-55
2023/07/22 04:30:55;;;;;;;6.15;1.95;;;15.00;99.90;;;;;;4898961;29;20443;-54
2023/07/22 04:34:25;;;;;;;3.60;1.67;;;15.00;99.90;;;;;;4898166;29;20049;-55
2023/07/22 04:37:35;;;;;;;;;;;;;;;;;;;;;
2023/07/22 04:40:59;;;;;;;3.72;1.83;;;15.00;99.90;;;;;;4898630;29;20043;-58
2023/07/22 04:43:29;;;;;;;7.57;1.65;;;15.10;99.90;;;;;;4883029;29;20052;-56
2023/07/22 04:49:52;;;;;;;5.82;1.90;;;15.00;99.90;;;;;;4936082;29;20051;-54
2023/07/22 04:52:39;;;;;;;4.25;1.77;;;15.10;99.90;;;;;;4935141;29;20059;-57
2023/07/22 04:55:54;;;;;;;;;;;;;;;;;;;;;
2023/07/22 04:58:40;;;;;;;6.63;1.90;;;15.10;99.90;;;;;;4960302;28;20171;-54
2023/07/22 05:05:02;;;;;;;7.53;1.70;;;15.20;99.90;;;;;;4962474;28;20490;-56
2023/07/22 05:07:57;;;;;;;4.30;1.80;;;15.20;99.90;;;;;;4984006;28;20050;-56
2023/07/22 05:10:24;;;;;;;5.28;1.90;;;15.20;99.90;;;;;;4994160;28;20055;-56
2023/07/22 05:12:58;;;;;;;5.03;1.90;;;15.20;99.90;;;;;;4981504;28;20042;-56
2023/07/22 05:15:59;;;;;;;5.75;1.90;;;15.30;99.80;;;;;;5013157;28;20048;-55
2023/07/22 05:18:52;;;;;;;3.85;1.70;;;15.30;99.60;;;;;;5027136;28;20041;-54
2023/07/22 05:21:52;;;;;;;3.50;1.73;;;15.30;99.60;;;;;;5033269;28;20159;-56
2023/07/22 05:24:55;;;;;;;3.90;1.67;;;15.30;99.50;;;;;;5027645;28;20072;-55
2023/07/22 05:37:33;;;;;;;3.65;1.60;;;15.60;99.10;;;;;;5032919;28;20455;-55
2023/07/22 05:40:08;;;;;;;5.93;1.80;;;15.60;98.90;;;;;;5032961;28;20050;-55
2023/07/22 05:42:38;;;;;;;5.00;1.70;;;15.70;98.90;;;;;;5032571;28;20048;-55
2023/07/22 05:45:18;;;;;;;;;;;;;;;;;;;;;
2023/07/22 05:48:07;;;;;;;3.00;1.20;;;15.80;98.70;;;;;;5014353;28;20049;-55
2023/07/22 05:51:15;;;;;;;3.50;1.67;;;15.80;98.60;;;;;;5032580;28;20037;-58
2023/07/22 05:53:44;;;;;;;5.32;1.63;;;15.80;98.60;;;;;;5032425;28;20243;-58
2023/07/22 05:59:04;;;;;;;4.38;1.40;;;15.80;98.60;;;;;;5032250;28;20053;-53
2023/07/22 06:02:19;;;;;;;6.47;1.95;;;15.90;98.60;;;;;;5032420;28;20186;-54
2023/07/22 06:05:01;;;;;;;3.50;1.35;;;15.90;98.50;;;;;;5030555;28;20053;-59
2023/07/22 06:07:34;;;;;;;4.07;1.70;;;15.90;98.70;;;;;;5050999;28;20179;-55
2023/07/22 06:10:37;;;;;;;3.38;1.35;;;15.90;98.50;;;;;;5052141;28;20044;-55
2023/07/22 06:13:08;;;;;;;3.63;1.60;;;15.90;98.50;;;;;;5052053;28;20040;-56
2023/07/22 06:15:36;;;;;;;5.88;1.95;;;16.00;98.40;;;;;;5052194;28;20079;-55
2023/07/22 06:18:28;;;;;;;4.85;1.80;;;16.10;98.40;;;;;;5052516;28;20065;-55
2023/07/22 06:20:55;;;;;;;4.60;1.60;;;16.10;98.40;;;;;;5052432;28;20045;-56
2023/07/22 06:23:22;;;;;;;4.18;2.10;;;16.10;98.40;;;;;;5051794;28;20150;-61
2023/07/22 06:25:49;;;;;;;5.15;1.90;;;16.20;98.50;;;;;;5035203;28;20052;-58
2023/07/22 06:28:16;;;;;;;3.97;2.00;;;16.20;98.30;;;;;;5036070;28;20415;-59
2023/07/22 06:30:53;;;;;;;4.45;1.90;;;16.20;98.40;;;;;;5054305;28;20033;-60
2023/07/22 06:33:20;;;;;;;5.93;2.47;;;16.30;98.50;;;;;;5054205;28;20110;-57
2023/07/22 06:35:50;;;;;;;7.20;2.00;;;16.30;98.50;;;;;;5054198;28;20052;-56
2023/07/22 06:38:20;;;;;;;5.60;1.90;;;16.40;98.10;;;;;;5053781;28;20076;-54
2023/07/22 06:40:47;;;;;;;6.40;2.10;;;16.50;98.10;;;;;;5053792;28;20045;-59
2023/07/22 06:43:14;;;;;;;7.22;2.30;;;16.60;97.90;;;;;;5036049;28;20135;-57
2023/07/22 06:45:42;;;;;;;5.85;2.30;;;16.70;97.80;;;;;;5062988;28;20057;-61
2023/07/22 06:48:09;;;;;;;5.70;2.20;;;16.80;97.80;;;;;;5073850;28;20112;-57
2023/07/22 06:50:39;;;;;;;6.55;2.30;;;17.00;97.60;;;;;;5055930;28;20037;-57
2023/07/22 06:53:09;;;;;;;4.80;2.40;;;17.00;97.50;;;;;;5073667;28;20029;-59
2023/07/22 06:55:36;;;;;;;4.63;2.03;;;17.10;97.50;;;;;;5073782;28;20093;-57
2023/07/22 06:58:06;;;;;;;7.70;2.47;;;17.10;97.30;;;;;;5073614;28;20037;-58
2023/07/22 07:00:34;;;;;;;6.50;2.20;;;17.10;97.20;;;;;;5074096;28;20036;-56
2023/07/22 07:03:01;;;;;;;5.90;1.95;;;17.10;97.40;;;;;;5073720;28;20049;-57
2023/07/22 07:05:29;;;;;;;3.50;1.98;;;17.20;97.10;;;;;;5073533;28;20056;-59
2023/07/22 07:07:59;;;;;;;6.15;2.50;;;17.10;97.20;;;;;;5073700;28;20048;-58
2023/07/22 07:10:26;;;;;;;5.32;2.03;;;17.20;97.30;;;;;;5073603;28;20037;-58
2023/07/22 07:12:53;;;;;;;5.97;2.35;;;17.20;97.30;;;;;;5073678;28;20048;-59
2023/07/22 07:15:20;;;;;;;4.55;1.70;;;17.20;97.20;;;;;;5073544;28;20036;-56
2023/07/22 07:17:50;;;;;;;4.78;2.00;;;17.30;97.10;;;;;;5073405;28;20048;-56
2023/07/22 07:20:20;;;;;;;5.18;2.35;;;17.40;97.00;;;;;;5055606;28;20591;-54
2023/07/22 07:22:48;;;;;;;4.50;2.30;;;17.40;97.00;;;;;;5073748;28;20036;-59
2023/07/22 07:25:15;;;;;;;5.40;2.00;;;17.50;97.00;;;;;;5073626;28;20040;-60
2023/07/22 07:27:43;;;;;;;8.55;2.40;;;17.60;96.90;;;;;;5055437;28;20033;-62
2023/07/22 07:30:13;;;;;;;4.80;2.08;;;17.60;96.80;;;;;;5073297;28;20082;-54
2023/07/22 07:32:40;;;;;;;4.78;2.08;;;17.70;96.60;;;;;;5072885;28;20051;-58
2023/07/22 07:35:08;;;;;;;4.32;1.83;;;17.90;96.70;;;;;;5073345;28;20075;-57
2023/07/22 07:37:38;;;;;;;4.93;1.80;;;18.00;96.20;;;;;;5073241;28;20051;-56
2023/07/22 07:40:09;;;;;;;6.18;2.10;;;18.00;95.60;;;;;;5073658;28;20048;-60
2023/07/22 07:42:40;;;;;;;4.30;1.65;;;18.10;95.80;;;;;;5055297;28;20040;-56
2023/07/22 07:45:07;;;;;;;6.10;1.67;;;18.20;95.80;;;;;;5073137;28;20379;-59
2023/07/22 07:47:34;;;;;;;3.78;1.38;;;18.20;95.70;;;;;;5073132;28;20383;-61
2023/07/22 07:50:03;;;;;;;3.15;1.65;;;18.20;95.80;;;;;;5055504;28;20044;-58
2023/07/22 07:52:30;;;;;;;4.10;1.50;;;18.30;95.80;;;;;;5075859;28;20406;-59
2023/07/22 07:54:57;;;;;;;4.30;1.63;;;18.40;95.80;;;;;;5077073;28;20353;-59
2023/07/22 07:57:24;;;;;;;2.88;1.20;;;18.40;95.70;;;;;;5076898;28;20122;-56
2023/07/22 07:59:51;;;;;;;4.55;1.45;;;18.50;95.60;;;;;;5076741;28;20040;-59
2023/07/22 08:02:19;;;;;;;4.68;1.55;;;18.50;95.60;;;;;;5076583;28;20051;-56
2023/07/22 08:04:46;;;;;;;4.45;1.52;;;18.60;95.30;;;;;;5076643;28;20114;-56
2023/07/22 08:07:17;;;;;;;4.13;1.70;;;18.70;95.10;;;;;;5076705;28;20045;-58
2023/07/22 08:12:40;;;;;;;5.10;1.60;;;18.80;95.40;;;;;;5076651;28;20043;-57
2023/07/22 08:15:08;;;;;;;6.80;1.40;;;19.00;95.10;;;;;;5076445;28;20064;-59
2023/07/22 08:17:50;;;;;;;4.50;1.30;;;19.10;94.80;;;;;;5076499;28;20495;-55
2023/07/22 08:20:18;;;;;;;3.78;1.40;;;19.20;94.50;;;;;;5076387;28;20040;-56
2023/07/22 08:22:45;;;;;;;4.07;1.38;;;19.30;94.40;;;;;;5076263;28;20040;-58
2023/07/22 08:25:12;;;;;;;3.20;1.30;;;19.40;93.90;;;;;;5076620;28;20032;-55
2023/07/22 08:27:39;;;;;;;4.80;1.23;;;19.40;93.80;;;;;;5076455;28;20032;-50
2023/07/22 08:30:05;;;;;;;4.13;1.27;;;19.40;94.00;;;;;;5076403;28;20044;-51
2023/07/22 08:32:32;;;;;;;2.90;1.27;;;19.50;93.90;;;;;;5058428;28;20062;-56
2023/07/22 08:34:59;;;;;;;4.50;1.20;;;19.60;94.20;;;;;;5076454;28;20098;-54
2023/07/22 08:37:26;;;;;;;4.53;1.30;;;19.60;93.50;;;;;;5058384;28;20124;-58
2023/07/22 08:39:53;;;;;;;2.78;1.10;;;19.70;93.30;;;;;;5076161;28;20055;-52
2023/07/22 08:42:19;;;;;;;6.50;1.27;;;19.70;93.40;;;;;;5076172;28;20079;-55
2023/07/22 08:44:47;;;;;;;3.75;1.38;;;19.80;93.30;;;;;;5075943;28;20434;-55
2023/07/22 08:47:14;;;;;;;2.25;1.02;;;19.90;93.40;;;;;;5076025;28;20043;-61
2023/07/22 08:49:42;;;;;;;7.15;1.30;;;19.90;93.10;;;;;;5057397;28;20502;-58
2023/07/22 08:52:11;;;;;;;2.85;1.30;;;19.90;92.90;;;;;;5075762;28;20043;-59
2023/07/22 08:54:41;;;;;;;7.25;1.30;;;20.00;93.00;;;;;;5075627;28;20047;-60
2023/07/22 08:57:18;;;;;;;;;;;;;;;;;;;;;
2023/07/22 09:00:12;;;;;;;4.05;1.27;;;20.10;93.10;;;;;;4983798;28;20057;-61
2023/07/22 09:02:40;;;;;;;2.92;1.38;;;20.30;93.20;;;;;;5014152;28;20089;-60
2023/07/22 09:05:09;;;;;;;2.95;1.40;;;20.50;92.90;;;;;;5013976;28;20045;-57
2023/07/22 09:07:36;;;;;;;3.83;1.63;;;20.60;92.50;;;;;;5013721;28;20121;-59
2023/07/22 09:10:04;;;;;;;4.05;1.50;;;20.60;92.30;;;;;;5013641;28;20070;-57
2023/07/22 09:12:31;;;;;;;3.95;1.77;;;20.50;92.30;;;;;;5013582;28;20084;-58
2023/07/22 09:15:02;;;;;;;3.60;1.48;;;20.30;92.40;;;;;;5013531;28;20049;-60
2023/07/22 09:17:29;;;;;;;5.75;1.98;;;20.10;92.70;;;;;;4997118;28;20165;-56
2023/07/22 09:19:56;;;;;;;3.55;1.60;;;19.90;93.10;;;;;;5013378;28;20042;-56
2023/07/22 09:22:23;;;;;;;7.35;2.08;;;19.80;93.30;;;;;;5013747;28;20054;-55
2023/07/22 09:24:50;;;;;;;4.93;1.85;;;19.60;93.60;;;;;;5013896;28;20049;-54
2023/07/22 09:27:16;;;;;;;4.43;1.80;;;19.50;93.80;;;;;;5013307;28;20074;-57
2023/07/22 09:29:46;;;;;;;2.85;1.27;;;19.30;94.30;;;;;;5013179;28;20058;-58
2023/07/22 09:32:13;;;;;;;3.53;1.80;;;19.20;94.60;;;;;;4997039;28;20042;-60
2023/07/22 09:34:40;;;;;;;4.15;2.00;;;19.10;94.80;;;;;;5013139;28;20046;-56
2023/07/22 09:37:07;;;;;;;4.00;2.08;;;18.90;95.70;;;;;;5073292;28;20060;-61
2023/07/22 09:39:34;;;;;;;4.95;1.88;;;18.70;96.70;;;;;;5074773;28;20047;-55
2023/07/22 09:42:15;;;;;;;6.70;2.03;;;18.60;97.60;;;;;;5074381;28;20067;-57
2023/07/22 09:44:53;;;;;;;6.97;1.70;;;18.50;98.60;;;;;;5057478;28;20057;-56
2023/07/22 09:47:29;;;;;;;4.25;1.80;;;18.50;98.60;;;;;;5058135;28;20040;-56
2023/07/22 09:49:57;;;;;;;7.97;1.85;;;18.60;98.70;;;;;;5074349;28;20044;-58
2023/07/22 09:52:31;;;;;;;5.55;2.53;;;18.70;98.60;;;;;;5074733;28;20094;-58
2023/07/22 09:54:59;;;;;;;4.45;1.73;;;18.80;98.00;;;;;;5074465;28;20048;-59
2023/07/22 09:57:48;;;;;;;4.00;1.58;;;18.90;97.60;;;;;;5074523;28;20041;-61
2023/07/22 10:00:36;;;;;;;3.85;1.73;;;18.90;97.10;;;;;;5073787;28;20106;-58
2023/07/22 10:03:06;;;;;;;3.78;1.75;;;19.00;97.10;;;;;;5074059;28;20118;-59
2023/07/22 10:05:34;;;;;;;4.93;1.92;;;19.20;96.70;;;;;;5074670;28;20117;-58
2023/07/22 10:08:03;;;;;;;5.32;1.98;;;19.40;96.10;;;;;;5073967;28;20041;-61
2023/07/22 10:10:30;;;;;;;6.53;1.92;;;19.60;95.40;;;;;;5074273;28;20043;-57
2023/07/22 10:13:01;;;;;;;3.60;1.50;;;19.70;94.90;;;;;;5056842;28;20043;-59
2023/07/22 10:15:33;;;;;;;6.55;2.03;;;19.80;94.70;;;;;;5073565;28;20036;-62
2023/07/22 10:18:00;;;;;;;4.53;1.65;;;20.00;94.60;;;;;;5073438;28;20060;-63
2023/07/22 10:20:34;;;;;;;6.50;2.20;;;20.10;94.10;;;;;;5073707;28;20055;-61
2023/07/22 10:23:01;;;;;;;4.07;1.90;;;20.20;94.10;;;;;;5074328;28;20058;-59
2023/07/22 10:25:31;;;;;;;5.95;2.15;;;20.40;94.00;;;;;;5074047;28;20119;-60
2023/07/22 10:27:58;;;;;;;4.93;1.70;;;20.50;93.50;;;;;;5056007;28;20087;-57
2023/07/22 10:30:25;;;;;;;3.50;2.00;;;20.50;93.10;;;;;;5074094;28;20033;-56
2023/07/22 10:32:51;;;;;;;2.97;1.80;;;20.60;93.40;;;;;;5074473;28;20094;-55
2023/07/22 10:35:18;;;;;;;3.80;1.88;;;20.70;93.40;;;;;;5074252;28;20067;-55
2023/07/22 10:37:45;;;;;;;4.40;2.50;;;20.70;93.40;;;;;;5074528;28;20064;-56
2023/07/22 10:40:12;;;;;;;4.80;2.25;;;20.70;92.60;;;;;;5074174;28;20063;-51
2023/07/22 10:42:39;;;;;;;5.30;2.58;;;20.50;92.50;;;;;;5074365;28;20051;-58
2023/07/22 10:45:05;;;;;;;4.50;2.08;;;20.40;92.90;;;;;;5074513;28;20052;-53
2023/07/22 10:47:33;;;;;;;7.60;2.30;;;20.40;93.00;;;;;;5073912;28;20075;-60
2023/07/22 10:50:00;;;;;;;5.68;2.35;;;20.40;93.00;;;;;;5074119;28;20033;-57
2023/07/22 10:52:27;;;;;;;5.20;2.40;;;20.40;92.90;;;;;;5075186;28;20487;-55
2023/07/22 10:54:54;;;;;;;4.25;2.00;;;20.50;93.30;;;;;;5074313;28;20082;-63
2023/07/22 10:57:20;;;;;;;4.75;2.00;;;20.60;92.90;;;;;;5074628;28;20047;-55
2023/07/22 10:59:47;;;;;;;6.22;2.22;;;20.60;93.10;;;;;;5075334;28;20045;-54
2023/07/22 11:02:14;;;;;;;4.43;2.13;;;20.80;92.70;;;;;;5074816;28;20044;-48
2023/07/22 11:04:41;;;;;;;6.38;2.05;;;20.80;92.60;;;;;;5079431;28;20136;-48
2023/07/22 11:07:21;;;;;;;3.63;2.00;;;20.80;92.60;;;;;;5079662;28;20036;-59
2023/07/22 11:09:48;;;;;;;4.43;2.28;;;21.00;92.30;;;;;;5059666;28;20040;-59
2023/07/22 11:12:15;;;;;;;5.18;1.80;;;21.10;92.30;;;;;;5076856;28;20506;-55
2023/07/22 11:14:42;;;;;;;4.72;2.00;;;21.20;91.90;;;;;;5075564;28;20127;-63
2023/07/22 11:17:10;;;;;;;4.05;2.10;;;21.30;92.00;;;;;;5075044;28;20044;-61
2023/07/22 11:19:38;;;;;;;3.15;1.90;;;21.30;91.80;;;;;;5073577;28;20040;-59
2023/07/22 11:22:06;;;;;;;5.45;1.98;;;21.20;92.00;;;;;;5073445;28;20118;-58
2023/07/22 11:24:37;;;;;;;4.20;1.90;;;21.10;91.80;;;;;;5073631;28;20067;-56
2023/07/22 11:27:04;;;;;;;4.47;1.92;;;20.90;92.10;;;;;;5076026;28;20044;-61
2023/07/22 11:29:34;;;;;;;6.22;1.83;;;20.80;92.10;;;;;;5077464;28;20123;-56
2023/07/22 11:32:01;;;;;;;6.13;1.90;;;20.80;92.10;;;;;;5077713;28;20048;-63
2023/07/22 11:34:29;;;;;;;6.30;1.83;;;20.90;91.90;;;;;;5077248;28;20487;-64
2023/07/22 11:36:56;;;;;;;6.70;1.70;;;21.00;92.10;;;;;;5077232;28;20040;-58
2023/07/22 11:39:22;;;;;;;5.22;1.95;;;21.10;92.00;;;;;;5077086;28;20051;-55
2023/07/22 11:41:59;;;;;;;3.03;1.70;;;21.10;91.90;;;;;;5077183;28;20040;-61
2023/07/22 11:44:47;;;;;;;7.75;1.50;;;21.10;91.90;;;;;;5014772;28;20104;-58
2023/07/22 11:47:28;;;;;;;9.65;2.10;;;21.10;91.90;;;;;;4995208;28;20363;-55
2023/07/22 11:49:55;;;;;;;3.65;1.63;;;20.90;92.40;;;;;;4996105;28;20134;-59
2023/07/22 11:52:22;;;;;;;7.57;2.13;;;20.80;92.60;;;;;;4995973;28;20046;-62
2023/07/22 11:54:49;;;;;;;5.65;1.95;;;20.60;93.50;;;;;;4995518;28;20046;-54
2023/07/22 11:57:16;;;;;;;5.47;1.75;;;20.50;94.30;;;;;;4995657;28;20066;-55
2023/07/22 11:59:43;;;;;;;4.22;1.98;;;20.20;95.00;;;;;;4979068;28;20393;-57
2023/07/22 12:02:10;;;;;;;9.57;2.22;;;20.10;96.10;;;;;;4995793;28;20089;-60
2023/07/22 12:04:37;;;;;;;6.03;2.30;;;19.70;96.20;;;;;;4995500;28;20046;-58
2023/07/22 12:07:05;;;;;;;4.90;1.90;;;19.40;96.80;;;;;;4994875;28;20053;-55
2023/07/22 12:09:32;;;;;;;9.85;2.35;;;19.10;98.00;;;;;;4995496;28;20050;-58
2023/07/22 12:11:59;;;;;;;4.63;2.30;;;19.10;99.20;;;;;;4995278;28;20042;-57
2023/07/22 12:14:51;;;;;;;6.68;2.50;;;19.00;99.40;;;;;;4993011;28;20061;-56
2023/07/22 12:17:19;;;;;;;6.63;2.50;;;18.90;99.70;;;;;;4995275;28;20050;-55
2023/07/22 12:19:46;;;;;;;6.68;2.67;;;18.80;99.90;;;;;;4995052;28;20058;-60
2023/07/22 12:22:27;;;;;;;5.80;2.63;;;18.70;99.90;;;;;;5028513;28;20057;-55
2023/07/22 12:25:03;;;;;;;5.22;2.50;;;18.70;99.90;;;;;;5039906;28;20044;-55
2023/07/22 12:27:32;;;;;;;5.72;3.00;;;18.60;99.90;;;;;;5055967;28;20060;-58
2023/07/22 12:30:27;;;;;;;5.80;3.10;;;18.40;99.90;;;;;;5038358;28;20035;-59
2023/07/22 12:32:55;;;;;;;6.65;2.95;;;18.20;99.90;;;;;;5056048;28;20045;-55
2023/07/22 12:35:22;;;;;;;5.65;2.90;;;18.00;99.90;;;;;;5056232;28;20122;-58
2023/07/22 12:37:57;;;;;;;6.20;2.95;;;17.80;99.90;;;;;;5055481;28;20391;-55
2023/07/22 12:40:24;;;;;;;8.15;3.22;;;17.70;99.90;;;;;;5055705;28;20045;-56
2023/07/22 12:42:51;;;;;;;5.97;2.95;;;17.60;99.90;;;;;;5055793;28;20114;-60
2023/07/22 12:45:18;;;;;;;4.50;2.72;;;17.50;99.90;;;;;;5042299;28;20063;-56
2023/07/22 12:47:51;;;;;;;6.18;3.20;;;17.40;99.90;;;;;;5075803;28;20041;-58
2023/07/22 12:50:40;;;;;;;9.80;3.40;;;17.30;99.90;;;;;;5057957;28;20044;-53
2023/07/22 12:53:06;;;;;;;7.63;3.80;;;17.20;99.90;;;;;;5057811;28;20036;-59
2023/07/22 12:55:39;;;;;;;9.00;3.45;;;17.20;99.90;;;;;;5062086;28;20106;-61
2023/07/22 12:58:07;;;;;;;7.15;3.70;;;17.10;99.90;;;;;;5075508;28;20041;-62
2023/07/22 13:00:40;;;;;;;6.78;3.60;;;17.10;99.90;;;;;;5075471;28;20041;-61
2023/07/22 13:03:57;;;;;;;6.97;3.22;;;17.10;99.90;;;;;;5074978;28;20506;-63
2023/07/22 13:06:28;;;;;;;7.32;3.65;;;17.10;99.90;;;;;;5075706;28;20474;-62
2023/07/22 13:09:19;;;;;;;7.10;3.80;;;17.00;99.90;;;;;;5062486;28;20107;-58
2023/07/22 13:11:47;;;;;;;7.78;3.60;;;16.80;99.90;;;;;;5075419;28;20569;-57
2023/07/22 13:14:15;;;;;;;6.57;3.67;;;16.80;99.90;;;;;;5075393;28;20043;-59
2023/07/22 13:16:57;;;;;;;7.45;3.38;;;16.80;99.90;;;;;;5075634;28;20379;-64
2023/07/22 13:19:27;;;;;;;7.60;3.80;;;16.80;99.90;;;;;;5075286;28;20040;-62
2023/07/22 13:21:55;;;;;;;8.88;4.20;;;16.70;99.90;;;;;;5074920;28;20494;-62
2023/07/22 13:24:22;;;;;;;6.80;4.20;;;16.80;99.90;;;;;;5075096;28;20115;-60
2023/07/22 13:26:49;;;;;;;8.18;4.20;;;16.80;99.90;;;;;;5075068;28;20042;-60
2023/07/22 13:29:37;;;;;;;8.20;4.55;;;16.80;99.90;;;;;;5074908;28;20041;-57
2023/07/22 13:32:04;;;;;;;6.22;4.60;;;16.80;99.90;;;;;;5074967;28;20032;-57
2023/07/22 13:34:41;;;;;;;;;;;;;;;;;;;;;
2023/07/22 13:37:44;;;;;;;10.35;5.30;;;16.90;99.90;;;;;;5072912;28;20045;-60
2023/07/22 13:40:12;;;;;;;10.05;5.43;;;17.10;99.90;;;;;;5074722;28;20075;-58
2023/07/22 13:42:42;;;;;;;8.63;5.22;;;17.10;99.90;;;;;;5056908;28;20055;-59
2023/07/22 13:45:09;;;;;;;9.52;5.57;;;17.20;99.90;;;;;;5074724;28;20071;-58
2023/07/22 13:47:37;;;;;;;9.50;6.03;;;17.20;99.90;;;;;;5057215;28;20052;-57
2023/07/22 13:50:10;;;;;;;9.35;5.80;;;17.20;99.90;;;;;;5074119;28;20099;-59
2023/07/22 13:52:38;;;;;;;9.75;6.10;;;17.30;99.90;;;;;;5074768;28;20028;-58
2023/07/22 13:55:05;;;;;;;9.93;6.00;;;17.30;99.90;;;;;;5074416;28;20043;-58
2023/07/22 13:57:35;;;;;;;9.85;6.28;;;17.40;99.90;;;;;;5074665;28;20039;-60
2023/07/22 14:00:08;;;;;;;10.20;6.20;;;17.50;99.90;;;;;;5074547;28;20048;-61
2023/07/22 14:02:37;;;;;;;8.57;5.85;;;17.50;99.90;;;;;;5074602;28;20118;-60
2023/07/22 14:05:05;;;;;;;9.23;6.28;;;17.50;99.90;;;;;;5074315;28;20048;-63
2023/07/22 14:07:41;;;;;;;9.93;5.53;;;17.60;99.90;;;;;;5074234;28;20037;-61
2023/07/22 14:10:09;;;;;;;11.13;6.18;;;17.80;99.90;;;;;;5074109;28;20440;-61
2023/07/22 14:12:38;;;;;;;9.50;5.75;;;17.90;99.90;;;;;;5073874;28;20036;-60
2023/07/22 14:15:06;;;;;;;7.97;5.63;;;18.00;99.90;;;;;;5074045;28;20045;-63
2023/07/22 14:17:51;;;;;;;8.05;5.75;;;18.10;99.90;;;;;;5043847;28;20110;-61
2023/07/22 14:20:22;;;;;;;7.55;5.38;;;18.10;99.90;;;;;;5056830;28;20050;-61
2023/07/22 14:22:55;;;;;;;7.40;5.10;;;18.00;99.90;;;;;;5057485;28;20041;-63
2023/07/22 14:25:25;;;;;;;7.07;4.80;;;18.00;99.90;;;;;;5074094;28;20040;-62
2023/07/22 14:28:03;;;;;;;;;;;;;;;;;;;;;
2023/07/22 14:31:04;;;;;;;;;;;17.80;99.90;;;;;;5056379;28;20029;-60
2023/07/22 14:33:56;;;;;;;6.57;4.40;;;17.70;99.90;;;;;;5073705;28;20366;-58
2023/07/22 14:36:26;;;;;;;6.70;4.40;;;17.80;99.90;;;;;;5073794;28;20095;-58
2023/07/22 14:38:55;;;;;;;5.68;4.43;;;17.80;99.90;;;;;;5074001;28;20122;-59
2023/07/22 14:41:22;;;;;;;7.53;5.03;;;17.80;99.90;;;;;;5074205;28;20040;-61
2023/07/22 14:43:50;;;;;;;8.35;5.22;;;17.80;99.90;;;;;;5073474;28;20044;-63
2023/07/22 14:46:17;;;;;;;6.60;4.82;;;17.70;99.90;;;;;;5073774;28;20056;-62
2023/07/22 14:48:48;;;;;;;10.27;5.30;;;17.60;99.90;;;;;;5073524;28;20051;-57
2023/07/22 14:51:15;;;;;;;9.82;5.18;;;17.50;99.90;;;;;;5055911;28;20036;-59
2023/07/22 14:53:42;;;;;;;11.38;5.93;;;17.30;99.90;;;;;;5073473;28;20036;-59
2023/07/22 14:56:13;;;;;;;8.15;5.93;;;17.20;99.90;;;;;;5056472;28;20044;-57
2023/07/22 14:58:44;;;;;;;10.40;6.53;;;17.10;99.90;;;;;;5056168;28;20063;-63
2023/07/22 15:01:14;;;;;;;9.65;6.70;;;17.00;99.90;;;;;;5076469;28;20095;-60
2023/07/22 15:03:42;;;;;;;11.68;7.03;;;17.00;99.90;;;;;;5078055;28;20033;-61
2023/07/22 15:06:13;;;;;;;10.32;6.65;;;16.90;99.90;;;;;;5077424;28;20052;-62
2023/07/22 15:08:52;;;;;;;10.50;7.18;;;16.80;99.90;;;;;;5077434;28;20051;-60
2023/07/22 15:11:32;;;;;;;11.45;7.30;;;16.70;99.90;;;;;;5076990;28;20045;-62